Terminal Aerodrome Forecast
Issued by NWS

Home | Current Version | Previous Version | Text Only | Print | Product List | Glossary On
Versions: 1 2 3 4 5 6 7 8 9 10 11 12 13 14 15 16 17 18
325
FTUS42 KFFC 211728
TAFFTY
TAF
KFTY 211728Z 2118/2218 11005KT P6SM BKN050
     FM220100 08003KT P6SM SCT009 BKN020
     FM220600 36003KT 5SM BR BKN008 OVC012
     FM220800 35006KT 3SM BR BKN006 OVC012
     FM221200 33007KT 5SM BR SCT009 BKN015
     FM221500 33008KT P6SM SCT050=

USA.gov is the U.S. government's official web portal to all federal, state and local government web resources and services.